createdAt,value
2018-02-22T00:00:24.629Z,59.15
2018-02-22T00:02:52.144Z,72.60
2018-02-22T00:05:19.656Z,63.70
2018-02-22T00:07:47.193Z,66.78
2018-02-22T00:10:14.698Z,70.95
2018-02-22T00:12:42.222Z,60.30
2018-02-22T00:15:09.748Z,53.45
2018-02-22T00:17:37.268Z,46.75
2018-02-22T00:20:04.834Z,51.22
2018-02-22T00:22:32.357Z,55.53
2018-02-22T00:24:59.863Z,61.20
2018-02-22T00:27:28.209Z,53.95
2018-02-22T00:29:55.718Z,53.85
2018-02-22T00:32:24.027Z,49.63
2018-02-22T00:34:51.592Z,51.53
2018-02-22T00:37:19.861Z,59.60
2018-02-22T00:39:47.388Z,62.45
2018-02-22T00:42:14.890Z,62.47
2018-02-22T00:44:42.415Z,65.20
2018-02-22T00:47:09.922Z,59.03
2018-02-22T00:49:37.447Z,65.25
2018-02-22T00:52:05.014Z,62.75
2018-02-22T00:54:32.537Z,58.72
2018-02-22T00:57:00.054Z,62.80
2018-02-22T00:59:27.594Z,75.25
2018-02-22T01:01:55.913Z,65.12
2018-02-22T01:04:24.209Z,59.50
2018-02-22T01:06:51.709Z,67.87
2018-02-22T01:09:19.238Z,71.43
2018-02-22T01:11:47.637Z,52.92
2018-02-22T01:14:15.910Z,65.68
2018-02-22T01:16:44.213Z,53.72
2018-02-22T01:19:12.489Z,47.92
2018-02-22T01:21:40.790Z,49.42
2018-02-22T01:24:09.057Z,59.20
2018-02-22T01:26:36.572Z,52.28
2018-02-22T01:29:04.126Z,46.20
2018-02-22T01:31:32.409Z,56.28
2018-02-22T01:34:00.701Z,46.92
2018-02-22T01:36:28.997Z,49.83
2018-02-22T01:38:56.512Z,52.42
2018-02-22T01:41:24.033Z,51.85
2018-02-22T01:43:52.302Z,46.45
2018-02-22T01:46:19.897Z,55.15
2018-02-22T01:48:48.180Z,48.50
2018-02-22T01:51:16.454Z,57.22
2018-02-22T01:53:43.981Z,51.92
2018-02-22T01:56:11.490Z,54.80
2018-02-22T01:58:39.090Z,52.40
2018-02-22T02:01:06.598Z,50.42
2018-02-22T02:03:34.119Z,52.47
2018-02-22T02:06:02.425Z,45.67
2018-02-22T02:08:30.712Z,47.60
2018-02-22T02:10:58.212Z,48.55
2018-02-22T02:13:25.729Z,48.00
2018-02-22T02:15:53.317Z,47.05
2018-02-22T02:18:21.597Z,47.33
2018-02-22T02:20:49.097Z,54.25
2018-02-22T02:23:16.621Z,57.28
2018-02-22T02:25:44.124Z,48.53
2018-02-22T02:28:12.514Z,49.85
2018-02-22T02:30:40.776Z,47.60
2018-02-22T02:33:09.104Z,47.13
2018-02-22T02:35:36.668Z,50.72
2018-02-22T02:38:04.972Z,47.42
2018-02-22T02:40:32.526Z,49.17
2018-02-22T02:43:00.807Z,53.65
2018-02-22T02:45:29.105Z,46.15
2018-02-22T02:47:57.388Z,48.17
2018-02-22T02:50:25.674Z,48.47
2018-02-22T02:52:53.945Z,51.30
2018-02-22T02:55:21.471Z,59.75
2018-02-22T02:57:48.969Z,44.63
2018-02-22T03:00:16.518Z,51.67
2018-02-22T03:02:44.021Z,52.35
2018-02-22T03:05:11.622Z,55.47
2018-02-22T03:07:39.888Z,48.13
2018-02-22T03:10:07.493Z,49.38
2018-02-22T03:12:35.782Z,45.58
2018-02-22T03:15:04.174Z,46.25
2018-02-22T03:17:32.444Z,51.70
2018-02-22T03:19:59.984Z,45.78
2018-02-22T03:22:27.607Z,48.05
2018-02-22T03:24:55.897Z,48.28
2018-02-22T03:27:24.175Z,51.42
2018-02-22T03:29:51.678Z,52.13
2018-02-22T03:32:19.190Z,49.58
2018-02-22T03:34:46.699Z,45.63
2018-02-22T03:37:14.987Z,57.25
2018-02-22T03:39:43.277Z,47.67
2018-02-22T03:42:10.799Z,48.60
2018-02-22T03:44:38.320Z,53.38
2018-02-22T03:47:06.709Z,44.30
2018-02-22T03:49:34.976Z,47.80
2018-02-22T03:52:02.514Z,47.62
2018-02-22T03:54:30.048Z,49.20
2018-02-22T03:56:58.329Z,57.75
2018-02-22T03:59:26.617Z,50.75
2018-02-22T04:01:54.880Z,55.90
2018-02-22T04:04:22.397Z,48.08
2018-02-22T04:06:50.052Z,53.97
2018-02-22T04:09:18.750Z,54.35
2018-02-22T04:11:47.020Z,47.42
2018-02-22T04:14:14.534Z,61.28
2018-02-22T04:16:42.041Z,45.42
2018-02-22T04:19:09.562Z,51.67
2018-02-22T04:21:37.065Z,51.97
2018-02-22T04:24:04.598Z,46.72
2018-02-22T04:26:32.866Z,48.45
2018-02-22T04:29:00.394Z,44.72
2018-02-22T04:31:27.926Z,49.08
2018-02-22T04:33:56.217Z,43.08
2018-02-22T04:36:24.614Z,50.60
2018-02-22T04:38:52.881Z,59.17
2018-02-22T04:41:20.396Z,52.65
2018-02-22T04:43:47.905Z,57.62
2018-02-22T04:46:15.513Z,49.90
2018-02-22T04:48:43.899Z,45.38
2018-02-22T04:51:12.185Z,44.47
2018-02-22T04:53:40.585Z,45.75
2018-02-22T04:56:08.868Z,45.47
2018-02-22T04:58:37.136Z,48.47
2018-02-22T05:01:04.655Z,42.58
2018-02-22T05:03:32.161Z,44.00
2018-02-22T05:05:59.685Z,46.97
2018-02-22T05:08:27.245Z,48.33
2018-02-22T05:10:55.548Z,57.33
2018-02-22T05:13:23.043Z,43.83
2018-02-22T05:15:50.576Z,44.92
2018-02-22T05:18:18.866Z,48.75
2018-02-22T05:20:47.132Z,45.78
2018-02-22T05:23:14.646Z,50.10
2018-02-22T05:25:42.153Z,49.88
2018-02-22T05:28:09.665Z,59.63
2018-02-22T05:30:37.931Z,60.58
2018-02-22T05:33:05.446Z,52.88
2018-02-22T05:35:32.952Z,57.05
2018-02-22T05:38:00.473Z,54.17
2018-02-22T05:40:28.770Z,60.92
2018-02-22T05:42:56.369Z,46.08
2018-02-22T05:45:23.923Z,54.33
2018-02-22T05:47:51.416Z,51.53
2018-02-22T05:50:18.933Z,49.88
2018-02-22T05:52:46.438Z,48.00
2018-02-22T05:55:14.012Z,44.67
2018-02-22T05:57:41.565Z,43.05
2018-02-22T06:00:09.841Z,49.47
2018-02-22T06:02:38.161Z,46.33
2018-02-22T06:05:05.717Z,43.03
2018-02-22T06:07:33.985Z,42.92
2018-02-22T06:10:01.505Z,49.70
2018-02-22T06:12:29.017Z,47.50
2018-02-22T06:14:57.313Z,48.90
2018-02-22T06:17:24.813Z,48.30
2018-02-22T06:19:53.098Z,45.38
2018-02-22T06:22:21.387Z,46.58
2018-02-22T06:24:49.645Z,42.40
2018-02-22T06:27:17.172Z,47.58
2018-02-22T06:29:44.673Z,39.08
2018-02-22T06:32:12.185Z,43.85
2018-02-22T06:34:40.449Z,43.03
2018-02-22T06:37:08.049Z,39.20
2018-02-22T06:39:36.310Z,45.05
2018-02-22T06:42:03.839Z,45.25
2018-02-22T06:44:31.386Z,41.30
2018-02-22T06:46:58.954Z,38.40
2018-02-22T06:49:27.221Z,42.40
2018-02-22T06:51:54.812Z,44.40
2018-02-22T06:54:23.104Z,47.97
2018-02-22T06:56:51.360Z,44.80
2018-02-22T06:59:18.883Z,48.80
2018-02-22T07:01:46.446Z,40.58
2018-02-22T07:04:14.729Z,41.45
2018-02-22T07:06:42.989Z,43.42
2018-02-22T07:09:10.590Z,48.75
2018-02-22T07:11:38.858Z,42.83
2018-02-22T07:14:06.390Z,42.60
2018-02-22T07:16:33.909Z,46.78
2018-02-22T07:19:02.245Z,40.90
2018-02-22T07:21:29.832Z,37.80
2018-02-22T07:23:57.351Z,43.17
2018-02-22T07:26:25.764Z,37.73
2018-02-22T07:28:54.044Z,40.80
2018-02-22T07:31:21.540Z,41.00
2018-02-22T07:33:49.061Z,42.87
2018-02-22T07:36:17.345Z,41.50
2018-02-22T07:38:44.872Z,38.77
2018-02-22T07:41:12.376Z,30.97
2018-02-22T07:43:39.868Z,40.23
2018-02-22T07:46:07.453Z,34.77
2018-02-22T07:48:35.715Z,32.97
2018-02-22T07:51:03.230Z,37.93
2018-02-22T07:53:30.735Z,37.80
2018-02-22T07:55:58.249Z,31.60
2018-02-22T07:58:26.513Z,35.03
2018-02-22T08:00:54.025Z,28.30
2018-02-22T08:03:21.525Z,31.23
2018-02-22T08:05:49.047Z,27.97
2018-02-22T08:08:17.305Z,23.67
2018-02-22T08:10:44.810Z,23.30
2018-02-22T08:13:13.082Z,28.27
2018-02-22T08:15:40.608Z,24.37
2018-02-22T08:18:08.097Z,26.30
2018-02-22T08:20:35.585Z,27.23
2018-02-22T08:23:03.283Z,33.70
2018-02-22T08:25:31.563Z,27.63
2018-02-22T08:27:59.077Z,23.70
2018-02-22T08:30:26.573Z,22.77
2018-02-22T08:32:54.085Z,23.93
2018-02-22T08:35:22.349Z,21.60
2018-02-22T08:37:49.862Z,21.27
2018-02-22T08:40:17.357Z,22.50
2018-02-22T08:42:45.166Z,23.20
2018-02-22T08:45:12.668Z,18.47
2018-02-22T08:47:40.950Z,18.80
2018-02-22T08:50:09.212Z,26.97
2018-02-22T08:52:36.729Z,18.43
2018-02-22T08:55:05.015Z,27.53
2018-02-22T08:57:33.297Z,19.73
2018-02-22T09:00:01.588Z,18.20
2018-02-22T09:02:29.870Z,21.57
2018-02-22T09:04:58.162Z,17.43
2018-02-22T09:07:26.422Z,18.40
2018-02-22T09:09:54.035Z,21.90
2018-02-22T09:12:21.718Z,17.33
2018-02-22T09:14:49.274Z,18.73
2018-02-22T09:17:17.534Z,17.77
2018-02-22T09:19:45.056Z,18.37
2018-02-22T09:22:12.553Z,35.53
2018-02-22T09:24:40.085Z,28.43
2018-02-22T09:27:08.349Z,18.60
2018-02-22T09:29:35.852Z,25.00
2018-02-22T09:32:03.404Z,19.50
2018-02-22T09:34:31.696Z,19.23
2018-02-22T09:36:59.979Z,18.17
2018-02-22T09:39:28.245Z,25.67
2018-02-22T09:41:55.770Z,15.83
2018-02-22T09:44:23.275Z,18.87
2018-02-22T09:46:50.784Z,19.53
2018-02-22T09:49:19.093Z,19.07
2018-02-22T09:51:46.649Z,17.93
2018-02-22T09:54:14.953Z,20.90
2018-02-22T09:56:42.457Z,26.33
2018-02-22T09:59:09.977Z,22.70
2018-02-22T10:01:38.248Z,25.67
2018-02-22T10:04:05.765Z,21.83
2018-02-22T10:06:33.258Z,24.03
2018-02-22T10:09:00.778Z,22.80
2018-02-22T10:11:29.034Z,20.73
2018-02-22T10:13:56.657Z,25.47
2018-02-22T10:16:24.160Z,23.83
2018-02-22T10:18:51.657Z,29.97
2018-02-22T10:21:19.182Z,23.40
2018-02-22T10:23:46.685Z,20.80
2018-02-22T10:26:14.197Z,20.87
2018-02-22T10:28:42.453Z,22.13
2018-02-22T10:31:10.053Z,25.63
2018-02-22T10:33:37.625Z,22.13
2018-02-22T10:36:05.901Z,23.40
2018-02-22T10:38:33.402Z,27.77
2018-02-22T10:41:00.915Z,25.33
2018-02-22T10:43:28.410Z,26.03
2018-02-22T10:45:56.002Z,26.43
2018-02-22T10:48:24.256Z,20.27
2018-02-22T10:50:51.770Z,21.47
2018-02-22T10:53:19.270Z,23.97
2018-02-22T10:55:46.793Z,29.13
2018-02-22T10:58:15.093Z,22.93
2018-02-22T11:00:48.966Z,22.20
2018-02-22T11:03:16.481Z,23.40
2018-02-22T11:05:44.745Z,23.40
2018-02-22T11:08:12.255Z,19.60
2018-02-22T11:10:39.753Z,22.10
2018-02-22T11:13:07.270Z,32.10
2018-02-22T11:15:34.765Z,19.90
2018-02-22T11:18:02.293Z,17.33
2018-02-22T11:20:29.829Z,21.13
2018-02-22T11:22:57.350Z,16.50
2018-02-22T11:25:24.843Z,20.13
2018-02-22T11:27:52.365Z,21.70
2018-02-22T11:30:19.869Z,17.07
2018-02-22T11:32:48.171Z,26.20
2018-02-22T11:35:16.444Z,19.63
2018-02-22T11:37:44.709Z,18.67
2018-02-22T11:40:12.224Z,23.80
2018-02-22T11:42:40.491Z,27.87
2018-02-22T11:45:08.790Z,31.87
2018-02-22T11:47:37.045Z,21.83
2018-02-22T11:50:04.565Z,25.10
2018-02-22T11:52:32.088Z,24.73
2018-02-22T11:54:59.642Z,19.70
2018-02-22T11:57:27.911Z,24.27
2018-02-22T11:59:55.477Z,21.20
2018-02-22T12:02:22.969Z,23.23
2018-02-22T12:04:50.494Z,22.60
2018-02-22T12:07:18.753Z,21.47
2018-02-22T12:09:46.261Z,18.97
2018-02-22T12:12:14.537Z,17.17
2018-02-22T12:14:42.808Z,18.10
2018-02-22T12:17:10.338Z,18.63
2018-02-22T12:19:37.830Z,18.77
2018-02-22T12:22:05.337Z,15.03
2018-02-22T12:24:33.601Z,16.90
2018-02-22T12:27:01.205Z,21.70
2018-02-22T12:29:29.467Z,26.30
2018-02-22T12:31:57.070Z,17.37
2018-02-22T12:34:25.360Z,15.80
2018-02-22T12:36:53.756Z,14.00
2018-02-22T12:39:22.021Z,16.10
2018-02-22T12:41:49.545Z,21.50
2018-02-22T12:44:17.044Z,19.27
2018-02-22T12:46:44.546Z,20.00
2018-02-22T12:49:12.833Z,17.83
2018-02-22T12:51:40.329Z,21.93
2018-02-22T12:54:07.837Z,14.43
2018-02-22T12:56:35.329Z,13.87
2018-02-22T12:59:02.848Z,17.80
2018-02-22T13:01:30.340Z,16.47
2018-02-22T13:03:57.857Z,19.30
2018-02-22T13:06:26.117Z,18.83
2018-02-22T13:08:53.639Z,25.70
2018-02-22T13:11:21.142Z,16.10
2018-02-22T13:13:48.649Z,14.60
2018-02-22T13:16:16.241Z,17.57
2018-02-22T13:18:44.500Z,14.90
2018-02-22T13:21:12.023Z,19.07
2018-02-22T13:23:39.529Z,17.40
2018-02-22T13:26:07.189Z,22.10
2018-02-22T13:28:34.705Z,20.40
2018-02-22T13:31:03.032Z,18.03
2018-02-22T13:33:43.057Z,20.00
2018-02-22T13:36:10.579Z,17.20
2018-02-22T13:38:50.030Z,23.67
2018-02-22T13:41:17.894Z,18.20
2018-02-22T13:43:45.398Z,19.27
2018-02-22T13:46:12.929Z,19.80
2018-02-22T13:48:52.438Z,21.40
2018-02-22T13:51:19.970Z,17.60
2018-02-22T13:53:47.498Z,16.83
2018-02-22T13:59:21.737Z,30.20
2018-02-22T14:02:02.441Z,22.67
2018-02-22T14:04:29.951Z,20.70
2018-02-22T14:06:57.505Z,19.07
2018-02-22T14:09:25.766Z,18.43
2018-02-22T14:11:53.401Z,17.33
2018-02-22T14:14:20.885Z,18.87
2018-02-22T14:16:48.386Z,21.30
2018-02-22T14:19:17.509Z,17.67
2018-02-22T14:21:45.806Z,19.53
2018-02-22T14:24:14.081Z,21.93
2018-02-22T14:26:42.350Z,16.27
2018-02-22T14:29:11.374Z,16.23
2018-02-22T14:31:39.640Z,22.50
2018-02-22T14:34:07.209Z,22.53
2018-02-22T14:36:34.713Z,23.60
2018-02-22T14:39:02.995Z,19.23
2018-02-22T14:41:31.266Z,17.17
2018-02-22T14:43:58.789Z,14.43
2018-02-22T14:46:26.284Z,20.20
2018-02-22T14:48:53.801Z,16.30
2018-02-22T14:51:22.078Z,18.33
2018-02-22T14:53:49.669Z,17.97
2018-02-22T14:56:17.965Z,18.07
2018-02-22T14:58:46.240Z,21.43
2018-02-22T15:01:13.756Z,18.13
2018-02-22T15:03:41.274Z,19.47
2018-02-22T15:06:08.810Z,15.60
2018-02-22T15:08:36.330Z,18.03
2018-02-22T15:11:04.621Z,23.90
2018-02-22T15:13:32.881Z,25.93
2018-02-22T15:16:00.392Z,14.40
2018-02-22T15:18:27.953Z,15.67
2018-02-22T15:20:56.229Z,19.67
2018-02-22T15:23:23.716Z,21.93
2018-02-22T15:25:59.152Z,18.10
2018-02-22T15:28:27.417Z,16.07
2018-02-22T15:30:54.951Z,17.33
2018-02-22T15:33:22.441Z,18.90
2018-02-22T15:35:49.945Z,25.00
2018-02-22T15:38:17.544Z,18.27
2018-02-22T15:40:45.805Z,16.67
2018-02-22T15:43:13.315Z,16.13
2018-02-22T15:45:40.813Z,22.20
2018-02-22T15:48:08.349Z,21.03
2018-02-22T15:50:36.610Z,17.80
2018-02-22T15:53:04.140Z,17.03
2018-02-22T15:55:31.678Z,25.97
2018-02-22T15:57:59.962Z,16.07
2018-02-22T16:00:28.222Z,17.43
2018-02-22T16:02:55.820Z,18.33
2018-02-22T16:05:24.101Z,18.23
2018-02-22T16:07:51.614Z,19.87
2018-02-22T16:10:19.111Z,20.93
2018-02-22T16:12:46.726Z,17.97
2018-02-22T16:15:14.988Z,18.93
2018-02-22T16:17:42.488Z,19.30
2018-02-22T16:20:10.767Z,24.43
2018-02-22T16:22:38.262Z,24.93
2018-02-22T16:25:05.893Z,17.97
2018-02-22T16:27:33.529Z,25.43
2018-02-22T16:30:01.027Z,18.90
2018-02-22T16:32:28.535Z,19.57
2018-02-22T16:34:56.815Z,20.80
2018-02-22T16:37:24.314Z,19.07
2018-02-22T16:39:51.820Z,18.93
2018-02-22T16:42:19.314Z,17.70
2018-02-22T16:44:46.832Z,21.60
2018-02-22T16:47:14.344Z,20.63
2018-02-22T16:49:41.867Z,20.97
2018-02-22T16:52:09.385Z,19.83
2018-02-22T16:54:36.880Z,23.80
2018-02-22T16:57:04.400Z,20.97
2018-02-22T16:59:31.896Z,24.47
2018-02-22T17:01:59.412Z,23.60
2018-02-22T17:04:26.985Z,26.33
2018-02-22T17:06:55.269Z,22.37
2018-02-22T17:09:23.574Z,16.33
2018-02-22T17:11:51.097Z,21.93
2018-02-22T17:14:18.601Z,22.10
2018-02-22T17:16:46.882Z,29.40
2018-02-22T17:19:15.153Z,28.93
2018-02-22T17:21:42.678Z,29.30
2018-02-22T17:24:10.185Z,29.33
2018-02-22T17:26:43.449Z,28.87
2018-02-22T17:29:16.722Z,24.47
2018-02-22T17:31:50.653Z,38.08
2018-02-22T17:34:18.927Z,27.10
2018-02-22T17:36:51.062Z,28.67
2018-02-22T17:39:24.200Z,31.12
2018-02-22T17:41:51.780Z,30.27
2018-02-22T17:44:19.261Z,27.00
2018-02-22T17:46:47.529Z,31.98
2018-02-22T17:49:15.058Z,29.30
2018-02-22T17:51:42.584Z,31.93
2018-02-22T17:54:10.110Z,29.08
2018-02-22T17:56:37.617Z,30.27
2018-02-22T17:59:05.133Z,38.00
2018-02-22T18:01:32.632Z,31.05
2018-02-22T18:04:00.916Z,35.53
2018-02-22T18:06:28.421Z,40.35
2018-02-22T18:08:55.952Z,35.30
2018-02-22T18:11:23.461Z,38.13
2018-02-22T18:13:50.985Z,35.85
2018-02-22T18:16:18.489Z,31.92
2018-02-22T18:18:46.205Z,36.78
2018-02-22T18:21:14.478Z,34.15
2018-02-22T18:23:42.007Z,37.03
2018-02-22T18:26:09.528Z,39.47
2018-02-22T18:28:37.830Z,37.50
2018-02-22T18:31:05.397Z,37.95
2018-02-22T18:33:33.661Z,37.35
2018-02-22T18:36:01.197Z,38.50
2018-02-22T18:38:28.719Z,40.22
2018-02-22T18:40:59.785Z,35.28
2018-02-22T18:43:33.072Z,39.28
2018-02-22T18:46:00.604Z,43.25
2018-02-22T18:48:28.122Z,32.15
2018-02-22T18:50:56.413Z,36.28
2018-02-22T18:53:24.708Z,39.47
2018-02-22T18:55:53.285Z,38.10
2018-02-22T18:58:20.809Z,39.17
2018-02-22T19:00:48.324Z,38.90
2018-02-22T19:03:15.827Z,37.83
2018-02-22T19:05:43.345Z,33.05
2018-02-22T19:08:10.884Z,40.15
2018-02-22T19:10:38.421Z,41.95
2018-02-22T19:13:06.689Z,33.58
2018-02-22T19:15:34.209Z,36.60
2018-02-22T19:18:01.728Z,33.17
2018-02-22T19:20:30.026Z,35.97
2018-02-22T19:22:57.561Z,36.58
2018-02-22T19:25:25.102Z,35.92
2018-02-22T19:27:52.673Z,35.25
2018-02-22T19:30:20.966Z,46.58
2018-02-22T19:32:49.240Z,40.92
2018-02-22T19:35:16.832Z,37.13
2018-02-22T19:37:44.353Z,35.80
2018-02-22T19:40:11.868Z,36.20
2018-02-22T19:42:39.381Z,32.85
2018-02-22T19:45:06.901Z,34.38
2018-02-22T19:47:35.169Z,29.98
2018-02-22T19:50:03.465Z,32.35
2018-02-22T19:52:30.970Z,31.02
2018-02-22T19:54:58.492Z,31.52
2018-02-22T19:57:25.993Z,26.48
2018-02-22T19:59:54.277Z,28.02
2018-02-22T20:02:22.550Z,28.00
2018-02-22T20:04:50.067Z,30.55
2018-02-22T20:07:17.661Z,28.27
2018-02-22T20:09:45.201Z,31.25
2018-02-22T20:12:12.726Z,29.23
2018-02-22T20:14:40.249Z,31.40
2018-02-22T20:17:07.808Z,28.17
2018-02-22T20:19:36.121Z,33.28
2018-02-22T20:22:03.625Z,32.28
2018-02-22T20:24:31.128Z,29.27
2018-02-22T20:26:59.417Z,30.98
2018-02-22T20:29:27.686Z,26.40
2018-02-22T20:31:55.204Z,38.65
2018-02-22T20:34:22.722Z,30.20
2018-02-22T20:36:50.331Z,33.50
2018-02-22T20:39:18.606Z,39.30
2018-02-22T20:41:46.893Z,29.77
2018-02-22T20:44:14.392Z,33.92
2018-02-22T20:46:41.919Z,32.67
2018-02-22T20:49:09.996Z,34.17
2018-02-22T20:51:39.339Z,41.05
2018-02-22T20:54:07.622Z,26.42
2018-02-22T20:56:35.912Z,23.60
2018-02-22T20:59:03.524Z,23.50
2018-02-22T21:01:31.050Z,25.60
2018-02-22T21:03:58.557Z,23.02
2018-02-22T21:06:26.098Z,23.90
2018-02-22T21:08:53.622Z,24.12
2018-02-22T21:11:21.196Z,30.10
2018-02-22T21:13:49.543Z,27.60
2018-02-22T21:16:17.817Z,21.52
2018-02-22T21:18:45.409Z,18.77
2018-02-22T21:21:13.676Z,21.05
2018-02-22T21:23:41.278Z,23.20
2018-02-22T21:26:09.665Z,18.75
2018-02-22T21:28:37.941Z,18.65
2018-02-22T21:31:06.210Z,16.85
2018-02-22T21:33:33.734Z,20.45
2018-02-22T21:36:01.237Z,22.73
2018-02-22T21:38:28.765Z,16.17
2018-02-22T21:40:56.268Z,21.85
2018-02-22T21:43:23.784Z,20.95
2018-02-22T21:45:52.056Z,18.37
2018-02-22T21:48:19.589Z,19.62
2018-02-22T21:50:47.085Z,21.35
2018-02-22T21:53:14.584Z,22.45
2018-02-22T21:55:42.108Z,18.65
2018-02-22T21:58:09.641Z,18.75
2018-02-22T22:00:37.924Z,18.23
2018-02-22T22:03:06.192Z,20.42
2018-02-22T22:05:33.713Z,16.00
2018-02-22T22:08:01.212Z,22.27
2018-02-22T22:10:28.760Z,15.50
2018-02-22T22:12:56.300Z,18.17
2018-02-22T22:15:24.697Z,17.45
2018-02-22T22:17:52.968Z,19.95
2018-02-22T22:20:20.490Z,17.40
2018-02-22T22:22:47.995Z,21.37
2018-02-22T22:25:15.527Z,19.27
2018-02-22T22:27:43.042Z,17.60
2018-02-22T22:30:10.548Z,21.23
2018-02-22T22:32:38.070Z,17.58
2018-02-22T22:35:05.585Z,20.67
2018-02-22T22:37:33.867Z,20.62
2018-02-22T22:40:02.162Z,15.68
2018-02-22T22:42:30.450Z,22.13
2018-02-22T22:44:58.730Z,19.60
2018-02-22T22:47:27.025Z,21.80
2018-02-22T22:49:55.285Z,17.05
2018-02-22T22:52:22.889Z,18.60
2018-02-22T22:54:51.154Z,16.15
2018-02-22T22:57:18.757Z,18.98
2018-02-22T22:59:46.317Z,20.20
2018-02-22T23:02:14.613Z,23.17
2018-02-22T23:04:42.880Z,17.20
2018-02-22T23:07:11.889Z,21.37
2018-02-22T23:09:39.405Z,24.85
2018-02-22T23:12:06.919Z,25.62
2018-02-22T23:14:34.525Z,27.27
2018-02-22T23:17:02.837Z,21.90
2018-02-22T23:19:30.360Z,26.80
2018-02-22T23:21:57.859Z,28.85
2018-02-22T23:24:26.299Z,27.35
2018-02-22T23:26:53.768Z,25.37
2018-02-22T23:29:21.293Z,32.22
2018-02-22T23:31:49.582Z,27.35
2018-02-22T23:34:17.101Z,25.45
2018-02-22T23:36:44.618Z,24.45
2018-02-22T23:39:12.915Z,24.00
2018-02-22T23:44:42.065Z,26.35
2018-02-22T23:47:09.564Z,22.65
2018-02-22T23:49:37.085Z,23.20
2018-02-22T23:52:05.361Z,23.25
2018-02-22T23:54:32.870Z,23.38
2018-02-22T23:57:00.425Z,25.30
2018-02-22T23:59:28.692Z,21.05
